createdAt,value
2019-05-11T00:00:16.649Z,24.25
2019-05-11T00:02:47.497Z,22.02
2019-05-11T00:05:18.450Z,23.52
2019-05-11T00:07:48.689Z,21.85
2019-05-11T00:10:18.973Z,22.42
2019-05-11T00:12:49.235Z,22.73
2019-05-11T00:15:19.804Z,19.37
2019-05-11T00:17:50.081Z,22.20
2019-05-11T00:20:21.903Z,19.10
2019-05-11T00:22:52.192Z,23.70
2019-05-11T00:25:22.545Z,22.42
2019-05-11T00:27:52.794Z,22.87
2019-05-11T00:30:23.173Z,27.27
2019-05-11T00:32:53.461Z,19.23
2019-05-11T00:35:23.793Z,19.25
2019-05-11T00:37:54.822Z,18.95
2019-05-11T00:40:25.119Z,23.65
2019-05-11T00:42:55.419Z,20.00
2019-05-11T00:45:25.684Z,23.85
2019-05-11T00:47:56.551Z,30.25
2019-05-11T00:50:38.604Z,18.17
2019-05-11T00:52:58.942Z,16.37
2019-05-11T00:55:29.299Z,19.55
2019-05-11T00:57:59.562Z,16.52
2019-05-11T01:00:29.888Z,16.35
2019-05-11T01:03:00.160Z,18.25
2019-05-11T01:05:30.340Z,16.97
2019-05-11T01:08:00.610Z,17.42
2019-05-11T01:10:41.542Z,18.07
2019-05-11T01:13:04.286Z,18.60
2019-05-11T01:15:38.767Z,17.73
2019-05-11T01:18:09.247Z,15.88
2019-05-11T01:20:39.614Z,15.53
2019-05-11T01:23:09.833Z,15.88
2019-05-11T01:25:40.293Z,19.30
2019-05-11T01:28:10.615Z,15.45
2019-05-11T01:30:40.944Z,15.38
2019-05-11T01:33:11.418Z,15.70
2019-05-11T01:35:41.966Z,16.20
2019-05-11T01:38:12.292Z,20.20
2019-05-11T01:40:57.610Z,17.25
2019-05-11T01:43:14.817Z,16.50
2019-05-11T01:45:45.018Z,17.48
2019-05-11T01:48:16.198Z,16.50
2019-05-11T01:50:46.398Z,18.73
2019-05-11T01:53:16.746Z,22.48
2019-05-11T01:55:47.018Z,16.90
2019-05-11T01:58:17.326Z,18.12
2019-05-11T02:00:47.596Z,22.50
2019-05-11T02:03:18.946Z,17.80
2019-05-11T02:05:51.754Z,18.05
2019-05-11T02:08:22.235Z,20.82
2019-05-11T02:10:52.684Z,16.15
2019-05-11T02:13:23.589Z,15.40
2019-05-11T02:15:53.943Z,18.23
2019-05-11T02:18:24.198Z,14.53
2019-05-11T02:20:54.395Z,17.20
2019-05-11T02:23:24.903Z,14.30
2019-05-11T02:25:55.177Z,17.23
2019-05-11T02:28:25.479Z,16.42
2019-05-11T02:30:55.767Z,14.80
2019-05-11T02:33:26.129Z,19.98
2019-05-11T02:35:56.615Z,18.77
2019-05-11T02:38:26.910Z,19.95
2019-05-11T02:40:57.431Z,19.52
2019-05-11T02:43:27.724Z,17.10
2019-05-11T02:45:58.217Z,15.50
2019-05-11T02:48:29.070Z,18.32
2019-05-11T02:51:00.073Z,19.48
2019-05-11T02:53:32.336Z,15.72
2019-05-11T02:56:04.429Z,17.77
2019-05-11T02:58:34.799Z,21.62
2019-05-11T03:01:05.262Z,19.73
2019-05-11T03:03:35.552Z,18.50
2019-05-11T03:06:05.741Z,15.43
2019-05-11T03:08:36.053Z,22.55
2019-05-11T03:11:06.444Z,19.57
2019-05-11T03:13:36.760Z,17.60
2019-05-11T03:16:07.215Z,18.45
2019-05-11T03:18:37.539Z,18.85
2019-05-11T03:21:07.730Z,17.85
2019-05-11T03:23:38.055Z,23.62
2019-05-11T03:26:09.294Z,20.57
2019-05-11T03:28:39.869Z,20.92
2019-05-11T03:31:10.149Z,20.40
2019-05-11T03:33:40.413Z,20.10
2019-05-11T03:36:10.816Z,22.37
2019-05-11T03:38:41.391Z,16.55
2019-05-11T03:41:11.682Z,19.45
2019-05-11T03:43:41.991Z,18.80
2019-05-11T03:46:12.260Z,23.40
2019-05-11T03:48:42.552Z,22.55
2019-05-11T03:51:13.126Z,16.82
2019-05-11T03:53:43.478Z,18.62
2019-05-11T03:56:13.793Z,19.77
2019-05-11T03:58:44.011Z,24.25
2019-05-11T04:01:14.403Z,22.22
2019-05-11T04:03:44.993Z,18.60
2019-05-11T04:06:15.268Z,21.20
2019-05-11T04:08:45.570Z,26.87
2019-05-11T04:11:15.811Z,21.65
2019-05-11T04:13:46.163Z,26.00
2019-05-11T04:16:16.545Z,19.90
2019-05-11T04:18:46.875Z,21.77
2019-05-11T04:21:17.232Z,22.07
2019-05-11T04:23:47.491Z,20.00
2019-05-11T04:26:17.764Z,19.62
2019-05-11T04:28:48.169Z,21.10
2019-05-11T04:31:18.870Z,20.20
2019-05-11T04:33:49.149Z,17.92
2019-05-11T04:36:20.611Z,19.55
2019-05-11T04:38:50.826Z,25.02
2019-05-11T04:41:21.181Z,19.02
2019-05-11T04:43:51.404Z,27.40
2019-05-11T04:46:21.672Z,24.43
2019-05-11T04:48:51.985Z,24.25
2019-05-11T04:51:22.263Z,48.40
2019-05-11T04:53:52.498Z,26.42
2019-05-11T04:56:22.690Z,25.00
2019-05-11T04:58:53.044Z,30.75
2019-05-11T05:01:23.635Z,32.75
2019-05-11T05:03:57.794Z,21.93
2019-05-11T05:06:25.864Z,25.80
2019-05-11T05:08:58.078Z,21.07
2019-05-11T05:11:30.720Z,16.30
2019-05-11T05:14:02.165Z,19.35
2019-05-11T05:16:34.189Z,22.87
2019-05-11T05:19:04.490Z,25.37
2019-05-11T05:21:34.797Z,19.15
2019-05-11T05:24:05.409Z,21.45
2019-05-11T05:26:35.667Z,27.45
2019-05-11T05:29:06.049Z,23.05
2019-05-11T05:31:36.677Z,22.07
2019-05-11T05:34:06.922Z,15.60
2019-05-11T05:36:37.715Z,22.65
2019-05-11T05:39:09.551Z,16.65
2019-05-11T05:41:40.227Z,19.62
2019-05-11T05:44:10.522Z,18.87
2019-05-11T05:46:40.837Z,18.77
2019-05-11T05:49:11.255Z,18.15
2019-05-11T05:51:41.557Z,26.00
2019-05-11T05:54:11.900Z,29.95
2019-05-11T05:56:42.199Z,21.68
2019-05-11T05:59:12.556Z,17.52
2019-05-11T06:01:42.903Z,19.98
2019-05-11T06:04:13.285Z,21.12
2019-05-11T06:06:43.602Z,20.85
2019-05-11T06:09:13.941Z,19.25
2019-05-11T06:11:47.540Z,17.65
2019-05-11T06:14:17.938Z,16.70
2019-05-11T06:16:49.261Z,16.57
2019-05-11T06:19:19.739Z,20.77
2019-05-11T06:21:50.141Z,16.93
2019-05-11T06:24:20.527Z,16.30
2019-05-11T06:26:50.794Z,16.97
2019-05-11T06:29:21.801Z,17.57
2019-05-11T06:31:52.309Z,17.32
2019-05-11T06:34:22.675Z,16.42
2019-05-11T06:36:53.415Z,21.20
2019-05-11T06:39:23.693Z,22.27
2019-05-11T06:41:53.917Z,19.87
2019-05-11T06:44:24.633Z,17.62
2019-05-11T06:46:54.875Z,17.35
2019-05-11T06:49:25.394Z,20.20
2019-05-11T06:51:55.655Z,15.85
2019-05-11T06:54:26.000Z,17.55
2019-05-11T06:56:56.263Z,25.50
2019-05-11T06:59:27.188Z,23.35
2019-05-11T07:01:57.415Z,24.87
2019-05-11T07:04:28.228Z,21.48
2019-05-11T07:06:58.622Z,17.98
2019-05-11T07:09:29.001Z,17.23
2019-05-11T07:11:59.328Z,16.93
2019-05-11T07:14:29.753Z,16.25
2019-05-11T07:17:00.043Z,20.52
2019-05-11T07:19:30.377Z,21.23
2019-05-11T07:22:00.719Z,19.07
2019-05-11T07:24:30.906Z,16.93
2019-05-11T07:27:01.674Z,16.10
2019-05-11T07:29:32.019Z,14.25
2019-05-11T07:32:10.001Z,19.12
2019-05-11T07:34:34.432Z,19.95
2019-05-11T07:37:04.808Z,19.77
2019-05-11T07:39:35.463Z,16.45
2019-05-11T07:42:07.650Z,19.23
2019-05-11T07:44:40.977Z,20.77
2019-05-11T07:47:09.536Z,19.27
2019-05-11T07:49:39.966Z,18.10
2019-05-11T07:52:11.399Z,24.02
2019-05-11T07:54:41.700Z,18.40
2019-05-11T07:57:12.009Z,17.73
2019-05-11T07:59:44.154Z,18.45
2019-05-11T08:02:14.424Z,17.57
2019-05-11T08:04:45.287Z,17.25
2019-05-11T08:07:17.928Z,13.80
2019-05-11T08:09:48.321Z,14.33
2019-05-11T08:12:19.302Z,10.82
2019-05-11T08:15:00.871Z,11.28
2019-05-11T08:17:21.557Z,13.65
2019-05-11T08:19:51.816Z,10.72
2019-05-11T08:22:22.970Z,10.75
2019-05-11T08:24:53.489Z,11.05
2019-05-11T08:27:24.224Z,10.60
2019-05-11T08:29:54.493Z,10.40
2019-05-11T08:32:24.772Z,11.97
2019-05-11T08:34:55.455Z,10.78
2019-05-11T08:37:25.613Z,13.15
2019-05-11T08:39:58.335Z,13.72
2019-05-11T08:42:28.939Z,10.93
2019-05-11T08:45:15.341Z,9.08
2019-05-11T08:47:31.935Z,9.85
2019-05-11T08:50:02.338Z,12.30
2019-05-11T08:52:32.655Z,13.93
2019-05-11T08:55:04.737Z,10.43
2019-05-11T08:57:35.594Z,10.05
2019-05-11T09:00:08.531Z,9.85
2019-05-11T09:02:39.804Z,10.95
2019-05-11T09:05:10.172Z,7.20
2019-05-11T09:07:40.422Z,12.80
2019-05-11T09:10:10.880Z,11.78
2019-05-11T09:12:41.708Z,10.82
2019-05-11T09:15:12.381Z,11.57
2019-05-11T09:17:42.639Z,16.62
2019-05-11T09:20:12.915Z,11.68
2019-05-11T09:22:43.197Z,17.20
2019-05-11T09:25:13.448Z,12.07
2019-05-11T09:27:43.765Z,12.03
2019-05-11T09:30:15.084Z,12.93
2019-05-11T09:32:47.609Z,13.70
2019-05-11T09:35:18.918Z,9.78
2019-05-11T09:37:49.183Z,7.35
2019-05-11T09:40:19.812Z,11.45
2019-05-11T09:42:50.190Z,8.45
2019-05-11T09:45:20.382Z,9.43
2019-05-11T09:47:50.705Z,8.18
2019-05-11T09:50:21.051Z,7.08
2019-05-11T09:52:51.407Z,6.65
2019-05-11T09:55:21.950Z,7.75
2019-05-11T09:57:52.237Z,10.43
2019-05-11T10:00:23.312Z,6.20
2019-05-11T10:02:53.629Z,7.08
2019-05-11T10:05:23.900Z,6.67
2019-05-11T10:07:54.589Z,6.65
2019-05-11T10:10:24.835Z,5.55
2019-05-11T10:12:55.653Z,6.62
2019-05-11T10:15:27.991Z,6.87
2019-05-11T10:17:59.082Z,7.12
2019-05-11T10:20:29.483Z,8.03
2019-05-11T10:22:59.696Z,7.45
2019-05-11T10:25:29.964Z,8.48
2019-05-11T10:28:00.256Z,8.50
2019-05-11T10:30:31.140Z,7.37
2019-05-11T10:33:01.398Z,8.20
2019-05-11T10:35:31.682Z,6.75
2019-05-11T10:38:02.416Z,6.55
2019-05-11T10:40:32.635Z,7.60
2019-05-11T10:43:02.942Z,11.35
2019-05-11T10:45:33.531Z,8.60
2019-05-11T10:48:03.843Z,9.18
2019-05-11T10:50:34.195Z,6.55
2019-05-11T10:53:04.413Z,8.78
2019-05-11T10:55:34.607Z,6.62
2019-05-11T10:58:04.916Z,6.28
2019-05-11T11:00:35.171Z,6.10
2019-05-11T11:03:05.476Z,5.92
2019-05-11T11:05:35.652Z,9.08
2019-05-11T11:08:08.102Z,9.20
2019-05-11T11:10:38.265Z,6.12
2019-05-11T11:13:08.514Z,8.58
2019-05-11T11:15:38.806Z,7.25
2019-05-11T11:18:09.091Z,5.97
2019-05-11T11:20:45.862Z,6.30
2019-05-11T11:23:17.707Z,5.60
2019-05-11T11:25:48.311Z,5.83
2019-05-11T11:28:18.562Z,8.10
2019-05-11T11:30:48.812Z,5.70
2019-05-11T11:33:19.456Z,7.50
2019-05-11T11:35:49.639Z,4.72
2019-05-11T11:38:19.957Z,5.15
2019-05-11T11:40:50.264Z,5.90
2019-05-11T11:43:20.478Z,8.15
2019-05-11T11:45:50.708Z,7.87
2019-05-11T11:48:21.004Z,4.30
2019-05-11T11:50:51.261Z,8.38
2019-05-11T11:53:21.480Z,8.45
2019-05-11T11:55:51.683Z,6.35
2019-05-11T11:58:23.923Z,6.40
2019-05-11T12:00:53.857Z,5.28
2019-05-11T12:03:24.197Z,7.00
2019-05-11T12:05:54.717Z,5.25
2019-05-11T12:08:24.879Z,6.30
2019-05-11T12:10:55.065Z,4.58
2019-05-11T12:13:27.409Z,7.95
2019-05-11T12:15:58.547Z,6.87
2019-05-11T12:18:28.951Z,6.30
2019-05-11T12:20:59.275Z,4.70
2019-05-11T12:23:29.535Z,9.98
2019-05-11T12:26:00.241Z,5.92
2019-05-11T12:28:30.424Z,3.85
2019-05-11T12:31:00.646Z,5.65
2019-05-11T12:33:31.397Z,5.47
2019-05-11T12:36:01.670Z,4.22
2019-05-11T12:38:31.930Z,5.10
2019-05-11T12:41:02.224Z,5.75
2019-05-11T12:43:33.272Z,5.10
2019-05-11T12:46:03.560Z,5.35
2019-05-11T12:48:33.746Z,5.72
2019-05-11T12:51:04.440Z,14.07
2019-05-11T12:53:34.623Z,9.05
2019-05-11T12:56:04.880Z,4.35
2019-05-11T12:58:35.154Z,6.33
2019-05-11T13:01:05.739Z,6.10
2019-05-11T13:03:38.393Z,5.33
2019-05-11T13:06:08.145Z,4.58
2019-05-11T13:08:38.967Z,6.70
2019-05-11T13:11:09.338Z,6.17
2019-05-11T13:13:39.539Z,5.53
2019-05-11T13:16:09.822Z,7.95
2019-05-11T13:18:40.312Z,5.65
2019-05-11T13:21:10.592Z,6.05
2019-05-11T13:23:40.895Z,3.67
2019-05-11T13:26:13.377Z,3.58
2019-05-11T13:28:43.014Z,7.85
2019-05-11T13:31:13.307Z,4.58
2019-05-11T13:33:43.605Z,4.78
2019-05-11T13:36:13.876Z,5.05
2019-05-11T13:38:44.162Z,10.05
2019-05-11T13:41:14.947Z,4.90
2019-05-11T13:43:45.183Z,3.77
2019-05-11T13:46:17.718Z,4.40
2019-05-11T13:48:47.605Z,5.05
2019-05-11T13:51:18.643Z,6.28
2019-05-11T13:53:49.909Z,3.15
2019-05-11T13:56:20.740Z,5.53
2019-05-11T13:58:50.979Z,10.58
2019-05-11T14:01:21.164Z,6.00
2019-05-11T14:03:51.736Z,8.00
2019-05-11T14:06:23.976Z,4.22
2019-05-11T14:08:54.284Z,5.55
2019-05-11T14:11:24.567Z,5.33
2019-05-11T14:13:55.048Z,6.65
2019-05-11T14:16:27.560Z,5.72
2019-05-11T14:18:58.146Z,4.58
2019-05-11T14:21:28.348Z,4.87
2019-05-11T14:23:58.916Z,5.28
2019-05-11T14:26:29.282Z,4.60
2019-05-11T14:28:59.601Z,9.25
2019-05-11T14:31:30.311Z,4.78
2019-05-11T14:34:00.693Z,6.65
2019-05-11T14:36:31.241Z,6.95
2019-05-11T14:39:01.613Z,4.33
2019-05-11T14:41:32.800Z,6.15
2019-05-11T14:44:03.692Z,10.43
2019-05-11T14:46:33.895Z,5.12
2019-05-11T14:49:04.261Z,8.10
2019-05-11T14:51:34.505Z,9.93
2019-05-11T14:54:04.715Z,9.23
2019-05-11T14:56:35.162Z,7.65
2019-05-11T14:59:05.451Z,10.93
2019-05-11T15:01:37.965Z,6.47
2019-05-11T15:04:08.963Z,5.62
2019-05-11T15:06:40.096Z,5.60
2019-05-11T15:09:10.462Z,11.22
2019-05-11T15:11:40.700Z,10.08
2019-05-11T15:14:11.000Z,6.97
2019-05-11T15:16:41.632Z,6.85
2019-05-11T15:19:11.925Z,4.75
2019-05-11T15:21:42.742Z,7.97
2019-05-11T15:24:12.876Z,5.92
2019-05-11T15:26:43.141Z,6.12
2019-05-11T15:29:13.405Z,5.62
2019-05-11T15:31:44.171Z,9.88
2019-05-11T15:34:14.453Z,7.92
2019-05-11T15:36:44.803Z,11.80
2019-05-11T15:39:15.146Z,20.97
2019-05-11T15:41:47.828Z,12.68
2019-05-11T15:44:18.328Z,10.68
2019-05-11T15:46:48.943Z,10.90
2019-05-11T15:49:19.129Z,10.60
2019-05-11T15:51:49.764Z,7.85
2019-05-11T15:54:20.035Z,12.60
2019-05-11T15:56:50.736Z,11.00
2019-05-11T15:59:20.918Z,14.03
2019-05-11T16:01:54.367Z,15.63
2019-05-11T16:04:23.280Z,52.17
2019-05-11T16:06:53.596Z,80.65
2019-05-11T16:09:23.901Z,100.58
2019-05-11T16:11:54.223Z,45.58
2019-05-11T16:14:24.661Z,45.88
2019-05-11T16:16:55.051Z,42.30
2019-05-11T16:19:25.301Z,40.28
2019-05-11T16:21:55.527Z,21.25
2019-05-11T16:24:25.724Z,26.50
2019-05-11T16:26:58.080Z,31.23
2019-05-11T16:29:28.201Z,16.67
2019-05-11T16:31:58.544Z,9.80
2019-05-11T16:34:29.030Z,13.58
2019-05-11T16:36:59.296Z,11.30
2019-05-11T16:39:29.575Z,9.43
2019-05-11T16:41:59.907Z,9.85
2019-05-11T16:44:30.282Z,12.80
2019-05-11T16:47:00.638Z,13.43
2019-05-11T16:49:32.418Z,15.18
2019-05-11T16:52:03.089Z,9.73
2019-05-11T16:54:33.404Z,12.03
2019-05-11T16:57:03.748Z,13.03
2019-05-11T16:59:33.998Z,12.00
2019-05-11T17:02:04.864Z,11.93
2019-05-11T17:04:36.188Z,13.65
2019-05-11T17:07:06.498Z,14.68
2019-05-11T17:09:37.804Z,15.83
2019-05-11T17:12:08.699Z,19.52
2019-05-11T17:14:40.576Z,15.30
2019-05-11T17:17:10.958Z,13.38
2019-05-11T17:19:46.030Z,16.45
2019-05-11T17:22:13.489Z,13.22
2019-05-11T17:24:43.813Z,13.05
2019-05-11T17:27:14.510Z,19.65
2019-05-11T17:29:44.843Z,12.35
2019-05-11T17:32:17.610Z,13.08
2019-05-11T17:34:47.847Z,15.32
2019-05-11T17:37:18.440Z,18.30
2019-05-11T17:39:49.396Z,15.13
2019-05-11T17:42:19.784Z,14.60
2019-05-11T17:44:50.040Z,14.30
2019-05-11T17:47:23.499Z,17.67
2019-05-11T17:49:59.592Z,16.10
2019-05-11T17:52:24.893Z,14.78
2019-05-11T17:54:55.241Z,14.45
2019-05-11T17:57:27.594Z,17.52
2019-05-11T17:59:57.968Z,18.42
2019-05-11T18:02:28.968Z,24.05
2019-05-11T18:04:59.826Z,20.52
2019-05-11T18:07:30.983Z,18.60
2019-05-11T18:10:01.515Z,21.27
2019-05-11T18:12:32.845Z,22.98
2019-05-11T18:15:03.139Z,22.22
2019-05-11T18:17:33.466Z,23.87
2019-05-11T18:20:14.712Z,23.98
2019-05-11T18:22:39.092Z,24.15
2019-05-11T18:27:40.129Z,23.10
2019-05-11T18:30:10.704Z,26.95
2019-05-11T18:32:41.094Z,23.55
2019-05-11T18:35:11.558Z,26.62
2019-05-11T18:37:55.352Z,25.10
2019-05-11T18:42:55.313Z,26.23
2019-05-11T18:45:25.618Z,28.25
2019-05-11T18:47:55.908Z,26.68
2019-05-11T18:50:30.927Z,30.00
2019-05-11T18:52:58.163Z,27.98
2019-05-11T18:55:28.625Z,27.82
2019-05-11T18:58:00.011Z,29.07
2019-05-11T19:00:30.291Z,26.68
2019-05-11T19:03:00.531Z,27.32
2019-05-11T19:05:31.121Z,31.55
2019-05-11T19:08:01.463Z,26.07
2019-05-11T19:10:32.827Z,34.10
2019-05-11T19:13:03.248Z,28.20
2019-05-11T19:15:33.637Z,31.48
2019-05-11T19:18:03.942Z,31.27
2019-05-11T19:20:45.322Z,30.52
2019-05-11T19:23:08.349Z,32.17
2019-05-11T19:25:38.401Z,30.27
2019-05-11T19:28:09.300Z,32.67
2019-05-11T19:30:39.536Z,35.88
2019-05-11T19:33:11.296Z,32.75
2019-05-11T19:35:41.708Z,35.05
2019-05-11T19:38:12.010Z,32.83
2019-05-11T19:40:42.274Z,31.48
2019-05-11T19:43:13.088Z,32.90
2019-05-11T19:45:43.361Z,34.13
2019-05-11T19:48:13.984Z,34.13
2019-05-11T19:50:44.236Z,36.05
2019-05-11T19:53:14.547Z,36.48
2019-05-11T19:55:45.288Z,32.58
2019-05-11T19:58:15.618Z,35.68
2019-05-11T20:00:48.657Z,35.48
2019-05-11T20:03:18.277Z,34.18
2019-05-11T20:05:48.708Z,33.75
2019-05-11T20:08:20.730Z,34.27
2019-05-11T20:10:51.027Z,33.00
2019-05-11T20:13:21.339Z,32.42
2019-05-11T20:15:53.044Z,41.00
2019-05-11T20:18:23.271Z,35.63
2019-05-11T20:20:53.532Z,38.15
2019-05-11T20:23:23.866Z,35.73
2019-05-11T20:25:58.215Z,33.73
2019-05-11T20:28:28.632Z,32.53
2019-05-11T20:30:58.972Z,35.50
2019-05-11T20:33:30.296Z,30.77
2019-05-11T20:36:00.577Z,31.37
2019-05-11T20:38:31.208Z,34.95
2019-05-11T20:41:01.628Z,37.55
2019-05-11T20:43:32.084Z,36.53
2019-05-11T20:46:02.476Z,31.48
2019-05-11T20:48:32.816Z,35.98
2019-05-11T20:51:03.080Z,33.08
2019-05-11T20:53:33.430Z,34.55
2019-05-11T20:56:03.836Z,34.50
2019-05-11T20:58:35.757Z,33.45
2019-05-11T21:01:06.378Z,32.53
2019-05-11T21:03:38.108Z,33.33
2019-05-11T21:06:08.411Z,38.10
2019-05-11T21:08:39.309Z,36.77
2019-05-11T21:11:09.577Z,37.08
2019-05-11T21:13:39.953Z,35.05
2019-05-11T21:16:11.223Z,39.10
2019-05-11T21:18:41.892Z,39.42
2019-05-11T21:21:12.102Z,39.67
2019-05-11T21:23:42.535Z,35.85
2019-05-11T21:26:15.687Z,38.00
2019-05-11T21:28:44.656Z,35.58
2019-05-11T21:31:15.458Z,37.73
2019-05-11T21:33:45.770Z,38.70
2019-05-11T21:36:18.031Z,38.17
2019-05-11T21:38:48.973Z,37.35
2019-05-11T21:41:19.270Z,42.15
2019-05-11T21:43:49.496Z,40.48
2019-05-11T21:46:19.761Z,38.70
2019-05-11T21:48:50.150Z,36.25
2019-05-11T21:51:20.866Z,34.50
2019-05-11T21:53:51.161Z,39.20
2019-05-11T21:56:21.456Z,36.05
2019-05-11T21:58:53.609Z,37.03
2019-05-11T22:01:23.711Z,32.10
2019-05-11T22:03:54.032Z,33.23
2019-05-11T22:06:24.313Z,32.80
2019-05-11T22:08:55.221Z,30.77
2019-05-11T22:11:25.446Z,33.75
2019-05-11T22:13:57.766Z,34.23
2019-05-11T22:16:30.091Z,36.95
2019-05-11T22:19:00.350Z,40.05
2019-05-11T22:21:30.600Z,36.33
2019-05-11T22:24:01.280Z,36.42
2019-05-11T22:26:31.585Z,36.90
2019-05-11T22:29:01.846Z,35.30
2019-05-11T22:31:32.726Z,37.98
2019-05-11T22:34:03.114Z,35.58
2019-05-11T22:36:33.937Z,33.23
2019-05-11T22:39:08.330Z,33.40
2019-05-11T22:41:39.684Z,36.25
2019-05-11T22:44:11.222Z,34.80
2019-05-11T22:46:41.437Z,32.05
2019-05-11T22:49:11.772Z,35.43
2019-05-11T22:51:42.193Z,33.95
2019-05-11T22:54:18.414Z,32.60
2019-05-11T22:56:48.194Z,33.63
2019-05-11T22:59:18.591Z,32.42
2019-05-11T23:01:49.140Z,34.75
2019-05-11T23:04:19.918Z,32.88
2019-05-11T23:06:50.300Z,35.83
2019-05-11T23:09:21.788Z,38.63
2019-05-11T23:11:51.989Z,39.42
2019-05-11T23:14:22.291Z,47.48
2019-05-11T23:16:52.593Z,45.25
2019-05-11T23:19:22.874Z,48.98
2019-05-11T23:21:53.177Z,50.12
2019-05-11T23:24:23.622Z,50.48
2019-05-11T23:26:53.856Z,50.88
2019-05-11T23:29:24.037Z,48.42
2019-05-11T23:31:54.338Z,49.10
2019-05-11T23:34:24.847Z,54.83
2019-05-11T23:36:55.168Z,42.62
2019-05-11T23:39:25.532Z,46.00
2019-05-11T23:41:55.864Z,44.80
2019-05-11T23:44:26.133Z,48.70
2019-05-11T23:46:56.761Z,41.98
2019-05-11T23:49:27.027Z,44.80
2019-05-11T23:51:57.264Z,46.55
2019-05-11T23:54:28.140Z,41.15
2019-05-11T23:56:58.514Z,43.20
2019-05-11T23:59:28.771Z,44.60
